MKJP/KIN METAR and TAF weather

Enter ICAO airport designator
Station Type Date Time Source
MKJP METAR 2021/05/15 00:00 UTC NOAA

MKJP 150000Z 15014KT 9999 FEW020 28/24 Q1013


Station Type Date Time Source
MKJP Decoded METAR 2021/05/15 00:00 UTC NOAA

Kingston / Norman Manley, Jamaica (MKJP) 17-56N 076-47W 14M
May 14, 2021 - 08:00 PM EDT / 2021.05.15 0000 UTC
Wind: from the SSE (150 degrees) at 16 MPH (14 KT):0
Visibility: greater than 7 mile(s):0
Sky conditions: mostly clear
Temperature: 82 F (28 C)
Dew Point: 75 F (24 C)
Relative Humidity: 78%
Pressure (altimeter): 29.91 in. Hg (1013 hPa)
ob: MKJP 150000Z 15014KT 9999 FEW020 28/24 Q1013
cycle: 0

Station Type Date Time Source
MKJP TAF 2021/05/14 18:23 UTC NOAA

TAF MKJP 141715Z 1418/1518 14018KT 9999 SCT020 SCT032
BECMG 1502/1504 36006KT FEW022
BECMG 1514/1516 14018KT

Example: see airport list